Time;durP1;ratioP1;P1;durP2;ratioP2;P2;SDS_P1;SDS_P2;PMS_P1;PMS_P2;Temp;Humidity;BMP_temperature;BMP_pressure;BME280_temperature;BME280_humidity;BME280_pressure;Samples;Min_cycle;Max_cycle;Signal;HPM_P1;HPM_P2
2021/04/02 00:00:01;;;;;;;18.55;13.52;;;359.10;1792.00;;;;;;4996157;28;20021;-72
2021/04/02 00:02:29;;;;;;;20.50;15.45;;;359.10;1792.00;;;;;;4996137;28;20039;-72
2021/04/02 00:04:55;;;;;;;18.13;13.43;;;;;;;;;;4996000;28;20053;-72
2021/04/02 00:07:21;;;;;;;21.30;14.68;;;;;;;;;;4995955;28;20030;-72
2021/04/02 00:09:47;;;;;;;22.50;15.45;;;;;;;;;;4996087;28;20022;-72
2021/04/02 00:12:13;;;;;;;21.88;15.48;;;;;;;;;;4995872;28;20162;-72
2021/04/02 00:14:39;;;;;;;19.63;14.48;;;;;;;;;;4995999;28;20027;-72
2021/04/02 00:17:05;;;;;;;17.08;13.23;;;;;;;;;;4995617;28;20047;-72
2021/04/02 00:19:31;;;;;;;17.40;12.38;;;;;;;;;;4995765;28;20023;-72
2021/04/02 00:21:57;;;;;;;15.88;12.75;;;;;;;;;;4995770;28;20374;-72
2021/04/02 00:24:24;;;;;;;18.48;12.75;;;;;;;;;;4995959;28;20400;-72
2021/04/02 00:26:50;;;;;;;18.70;13.85;;;;;;;;;;4995857;28;20066;-72
2021/04/02 00:29:16;;;;;;;18.50;13.93;;;;;;;;;;4995516;28;20392;-72
2021/04/02 00:31:42;;;;;;;17.02;12.25;;;;;;;;;;4995785;28;20022;-73
2021/04/02 00:34:08;;;;;;;15.70;11.80;;;;;;;;;;4995485;28;20055;-72
2021/04/02 00:36:34;;;;;;;20.00;14.23;;;358.70;1843.20;;;;;;4995486;28;20034;-72
2021/04/02 00:39:00;;;;;;;24.60;20.48;;;358.50;1843.20;;;;;;4995607;28;20029;-72
2021/04/02 00:41:25;;;;;;;16.27;12.48;;;358.70;2150.40;;;;;;4995210;28;20027;-72
2021/04/02 00:43:51;;;;;;;17.33;12.68;;;358.40;1894.40;;;;;;4995296;28;20049;-73
2021/04/02 00:46:19;;;;;;;22.23;15.80;;;358.50;1894.40;;;;;;4994444;28;20030;-73
2021/04/02 00:48:46;;;;;;;20.40;12.80;;;358.60;1868.80;;;;;;4995277;28;20033;-73
2021/04/02 00:51:25;;;;;;;20.42;15.73;;;358.70;1843.20;;;;;;4995643;28;20081;-72
2021/04/02 00:53:51;;;;;;;15.85;12.32;;;358.60;1868.80;;;;;;4995238;28;20452;-73
2021/04/02 00:56:18;;;;;;;16.63;13.82;;;358.60;1843.20;;;;;;4995162;28;20499;-72
2021/04/02 00:58:44;;;;;;;18.40;13.05;;;358.40;1868.80;;;;;;4995041;28;20030;-72
2021/04/02 01:01:12;;;;;;;23.10;13.13;;;333.70;1894.40;;;;;;4995095;28;20022;-72
2021/04/02 01:03:38;;;;;;;16.83;12.75;;;;;;;;;;4981427;28;20090;-71
2021/04/02 01:06:06;;;;;;;16.55;12.40;;;;;;;;;;4995214;28;20088;-72
2021/04/02 01:08:36;;;;;;;20.98;13.70;;;;;;;;;;4994898;28;20023;-72
2021/04/02 01:11:03;;;;;;;25.27;15.02;;;;;;;;;;4977408;28;20109;-72
2021/04/02 01:13:39;;;;;;;22.92;17.67;;;;;;;;;;4994761;28;20030;-72
2021/04/02 01:16:08;;;;;;;32.13;25.10;;;;;;;;;;4994639;28;20034;-71
2021/04/02 01:19:03;;;;;;;18.35;12.93;;;333.70;2099.20;;;;;;4994650;28;20085;-71
2021/04/02 01:21:30;;;;;;;15.43;12.02;;;333.70;2124.80;;;;;;4994561;28;20077;-71
2021/04/02 01:24:14;;;;;;;16.75;11.60;;;333.60;1920.00;;;;;;4994477;28;20030;-71
2021/04/02 01:26:59;;;;;;;15.38;11.35;;;333.40;1920.00;;;;;;4994612;28;20027;-71
2021/04/02 01:30:09;;;;;;;16.60;10.88;;;333.40;1945.60;;;;;;4994470;28;20049;-72
2021/04/02 01:32:39;;;;;;;14.77;10.40;;;333.30;2227.20;;;;;;4915339;29;20020;-70
2021/04/02 01:35:11;;;;;;;14.45;11.90;;;333.40;1920.00;;;;;;4915475;29;20036;-71
2021/04/02 01:37:41;;;;;;;17.35;12.13;;;333.50;1894.40;;;;;;4915245;29;20036;-71
2021/04/02 01:40:09;;;;;;;18.70;11.45;;;333.60;1868.80;;;;;;4915378;29;20028;-72
2021/04/02 01:42:38;;;;;;;18.85;12.25;;;333.70;1868.80;;;;;;4915194;29;20116;-71
2021/04/02 01:45:10;;;;;;;15.82;11.55;;;333.70;1868.80;;;;;;4915078;29;20137;-71
2021/04/02 01:47:37;;;;;;;15.75;11.15;;;358.40;1868.80;;;;;;4915406;29;20034;-72
2021/04/02 01:50:04;;;;;;;14.43;11.80;;;358.60;1817.60;;;;;;4914917;29;20060;-71
2021/04/02 01:52:30;;;;;;;16.60;10.70;;;;;;;;;;4915079;29;20492;-72
2021/04/02 01:54:57;;;;;;;19.63;11.85;;;;;;;;;;4915159;29;20120;-72
2021/04/02 01:57:27;;;;;;;14.57;11.00;;;358.70;1792.00;;;;;;4914818;29;20519;-72
2021/04/02 01:59:53;;;;;;;14.65;11.25;;;;;;;;;;4915084;29;20119;-72
2021/04/02 02:02:21;;;;;;;16.92;10.68;;;358.60;1817.60;;;;;;4925448;28;20055;-72
2021/04/02 02:04:48;;;;;;;18.20;11.23;;;333.70;1843.20;;;;;;4993906;28;20117;-72
2021/04/02 02:07:15;;;;;;;18.83;12.73;;;;;;;;;;4994134;28;20026;-72
2021/04/02 02:09:43;;;;;;;15.63;11.32;;;333.70;1868.80;;;;;;4993852;28;20026;-71
2021/04/02 02:12:13;;;;;;;15.23;10.23;;;333.60;1843.20;;;;;;4993895;28;20030;-71
2021/04/02 02:14:42;;;;;;;13.40;10.32;;;358.50;1817.60;;;;;;4993754;28;20046;-71
2021/04/02 02:17:10;;;;;;;25.98;18.65;;;;;;;;;;4993358;28;20058;-72
2021/04/02 02:19:39;;;;;;;15.88;10.88;;;358.60;1792.00;;;;;;4993693;28;20105;-71
2021/04/02 02:22:07;;;;;;;12.35;10.05;;;;;;;;;;4993510;28;20030;-71
2021/04/02 02:24:34;;;;;;;14.63;10.57;;;;;;;;;;4993632;28;20022;-72
2021/04/02 02:27:01;;;;;;;38.30;34.50;;;333.70;1817.60;;;;;;4993583;28;20085;-71
2021/04/02 02:29:27;;;;;;;22.23;19.08;;;358.60;1792.00;;;;;;4993413;28;20030;-72
2021/04/02 02:31:53;;;;;;;14.77;13.25;;;;;;;;;;4993537;28;20026;-71
2021/04/02 02:34:19;;;;;;;17.42;15.15;;;;;;;;;;4993382;28;20027;-72
2021/04/02 02:36:46;;;;;;;23.02;13.75;;;;;;;;;;4993266;28;20026;-72
2021/04/02 02:39:14;;;;;;;12.82;9.32;;;;;;;;;;4993331;28;20037;-72
2021/04/02 02:41:40;;;;;;;14.10;11.95;;;358.80;1740.80;;;;;;4993011;28;20018;-71
2021/04/02 02:44:06;;;;;;;12.77;11.23;;;358.70;1740.80;;;;;;4993309;28;20029;-72
2021/04/02 02:46:32;;;;;;;17.38;11.55;;;359.00;1740.80;;;;;;4993272;28;20033;-72
2021/04/02 02:49:04;;;;;;;12.20;9.57;;;;;;;;;;4993078;28;20401;-72
2021/04/02 02:51:31;;;;;;;14.98;11.65;;;;;;;;;;4993112;28;20026;-72
2021/04/02 02:54:00;;;;;;;11.88;8.25;;;;;;;;;;4993103;28;20037;-72
2021/04/02 02:56:28;;;;;;;11.90;8.70;;;;;;;;;;4993160;28;20029;-72
2021/04/02 02:58:56;;;;;;;15.50;9.90;;;359.00;1715.20;;;;;;4992898;28;20028;-72
2021/04/02 03:01:23;;;;;;;11.95;9.15;;;;;;;;;;4993045;28;20545;-72
2021/04/02 03:03:52;;;;;;;14.63;9.57;;;;;;;;;;4979390;28;20466;-72
2021/04/02 03:06:20;;;;;;;12.10;8.57;;;;;;;;;;4992892;28;20473;-72
2021/04/02 03:08:47;;;;;;;11.60;8.15;;;;;;;;;;4992337;28;20037;-73
2021/04/02 03:11:16;;;;;;;28.20;14.57;;;;;;;;;;4992812;28;20015;-72
2021/04/02 03:13:44;;;;;;;26.88;15.35;;;359.00;1715.20;;;;;;4992833;28;20113;-71
2021/04/02 03:16:11;;;;;;;27.77;18.95;;;;;;;;;;4992661;28;20054;-72
2021/04/02 03:18:38;;;;;;;26.63;17.23;;;;;;;;;;4993208;28;20034;-72
2021/04/02 03:21:06;;;;;;;21.70;14.82;;;;;;;;;;4993087;28;20026;-72
2021/04/02 03:23:33;;;;;;;23.30;14.15;;;;;;;;;;4993118;28;20189;-72
2021/04/02 03:25:59;;;;;;;30.27;14.77;;;;;;;;;;4992991;28;20420;-72
2021/04/02 03:28:26;;;;;;;27.88;17.60;;;;;;;;;;4993004;28;20027;-71
2021/04/02 03:30:52;;;;;;;24.98;15.43;;;;;;;;;;4992658;28;20026;-72
2021/04/02 03:33:25;;;;;;;22.17;14.18;;;;;;;;;;4992741;28;20019;-72
2021/04/02 03:35:55;;;;;;;23.95;15.65;;;;;;;;;;4992521;28;20037;-72
2021/04/02 03:38:22;;;;;;;22.85;14.23;;;;;;;;;;4992640;28;20169;-73
2021/04/02 03:40:49;;;;;;;22.70;14.43;;;;;;;;;;4992693;28;20019;-73
2021/04/02 03:43:16;;;;;;;25.67;14.98;;;;;;;;;;4974327;28;20611;-73
2021/04/02 03:45:42;;;;;;;28.50;15.73;;;;;;;;;;4992892;28;20413;-72
2021/04/02 03:48:12;;;;;;;31.52;16.50;;;;;;;;;;4992519;28;20113;-72
2021/04/02 03:50:39;;;;;;;25.17;16.17;;;;;;;;;;4986051;28;20073;-72
2021/04/02 03:53:17;;;;;;;27.08;18.83;;;;;;;;;;4985706;28;20424;-74
2021/04/02 03:55:45;;;;;;;27.73;17.85;;;;;;;;;;4992631;28;20022;-72
2021/04/02 03:58:13;;;;;;;37.10;21.27;;;;;;;;;;4992482;28;20018;-72
2021/04/02 04:00:46;;;;;;;25.25;18.45;;;;;;;;;;4992401;28;20384;-72
2021/04/02 04:03:13;;;;;;;24.83;17.00;;;;;;;;;;4992463;28;20038;-73
2021/04/02 04:05:40;;;;;;;26.50;18.13;;;;;;;;;;4992170;28;20023;-72
2021/04/02 04:08:09;;;;;;;21.52;15.15;;;;;;;;;;4981985;28;20037;-73
2021/04/02 04:10:35;;;;;;;26.98;15.93;;;;;;;;;;4992599;28;20026;-73
2021/04/02 04:13:02;;;;;;;28.92;17.92;;;;;;;;;;4974968;28;20037;-73
2021/04/02 04:15:29;;;;;;;35.97;21.33;;;;;;;;;;4991904;28;20473;-73
2021/04/02 04:17:56;;;;;;;34.13;21.40;;;;;;;;;;4992400;28;20045;-73
2021/04/02 04:20:23;;;;;;;24.15;15.23;;;;;;;;;;4992870;28;20031;-73
2021/04/02 04:22:50;;;;;;;26.13;17.02;;;;;;;;;;4995517;28;20089;-73
2021/04/02 04:25:19;;;;;;;25.63;15.40;;;;;;;;;;4995770;28;20109;-73
2021/04/02 04:27:45;;;;;;;46.75;29.38;;;;;;;;;;4978039;28;20114;-73
2021/04/02 04:30:12;;;;;;;66.43;36.70;;;;;;;;;;4995660;28;20469;-73
2021/04/02 04:32:40;;;;;;;76.13;42.63;;;;;;;;;;4995517;28;20370;-73
2021/04/02 04:35:08;;;;;;;67.80;40.50;;;;;;;;;;4995328;28;20098;-73
2021/04/02 04:37:35;;;;;;;63.15;37.67;;;;;;;;;;4995432;28;20034;-73
2021/04/02 04:40:01;;;;;;;67.63;42.90;;;;;;;;;;4995490;28;20026;-73
2021/04/02 04:42:27;;;;;;;83.85;57.25;;;;;;;;;;4995273;28;20038;-73
2021/04/02 04:44:56;;;;;;;92.80;58.67;;;;;;;;;;4977744;28;20469;-73
2021/04/02 04:47:22;;;;;;;85.35;51.65;;;;;;;;;;4995372;28;20031;-73
2021/04/02 04:49:48;;;;;;;94.55;57.53;;;;;;;;;;4995342;28;20062;-73
2021/04/02 04:52:15;;;;;;;89.97;52.55;;;;;;;;;;4995136;28;20552;-73
2021/04/02 04:54:43;;;;;;;80.70;40.80;;;;;;;;;;4995313;28;20157;-73
2021/04/02 04:57:10;;;;;;;67.18;37.88;;;;;;;;;;4995325;28;20022;-73
2021/04/02 04:59:37;;;;;;;63.95;37.15;;;;;;;;;;4984853;28;20019;-73
2021/04/02 05:02:03;;;;;;;74.65;42.80;;;;;;;;;;4991778;28;20108;-73
2021/04/02 05:04:30;;;;;;;91.88;56.63;;;;;;;;;;4995032;28;20089;-73
2021/04/02 05:06:58;;;;;;;130.65;75.22;;;;;;;;;;4994734;28;20077;-73
2021/04/02 05:09:26;;;;;;;168.15;91.82;;;;;;;;;;4994868;28;20041;-72
2021/04/02 05:11:52;;;;;;;147.20;92.60;;;;;;;;;;4995093;28;20026;-73
2021/04/02 05:14:19;;;;;;;130.15;82.80;;;;;;;;;;4994726;28;20031;-73
2021/04/02 05:16:46;;;;;;;153.40;85.43;;;;;;;;;;4994486;28;20054;-72
2021/04/02 05:19:15;;;;;;;131.65;79.13;;;;;;;;;;4994608;28;20496;-72
2021/04/02 05:21:42;;;;;;;98.28;58.28;;;;;;;;;;4994415;28;20035;-72
2021/04/02 05:24:08;;;;;;;92.78;51.90;;;410.30;1612.80;;;;;;4994530;28;20019;-71
2021/04/02 05:26:34;;;;;;;91.72;55.05;;;;;;;;;;4994617;28;20098;-71
2021/04/02 05:29:00;;;;;;;116.97;75.88;;;410.30;1740.80;;;;;;4994486;28;20018;-72
2021/04/02 05:31:25;;;;;;;104.65;62.28;;;410.20;1766.40;;;;;;4994658;28;20045;-72
2021/04/02 05:33:51;;;;;;;67.57;45.72;;;410.10;1817.60;;;;;;4981415;28;20030;-71
2021/04/02 05:36:17;;;;;;;60.63;38.22;;;410.10;1868.80;;;;;;4993079;28;20030;-72
2021/04/02 05:38:43;;;;;;;46.45;25.30;;;410.00;1894.40;;;;;;4994388;28;20027;-71
2021/04/02 05:41:18;;;;;;;72.28;43.05;;;410.00;1868.80;;;;;;4994339;28;20034;-73
2021/04/02 05:43:51;;;;;;;81.80;53.67;;;;;;;;;;4980588;28;20037;-73
2021/04/02 05:46:17;;;;;;;56.20;34.63;;;;;;;;;;4994254;28;20031;-72
2021/04/02 05:48:44;;;;;;;37.05;23.63;;;;;;;;;;4993939;28;20105;-73
2021/04/02 05:51:12;;;;;;;48.42;30.25;;;;;;;;;;4993301;28;20022;-71
2021/04/02 05:53:39;;;;;;;45.92;30.45;;;;;;;;;;4986315;28;20380;-70
2021/04/02 05:56:06;;;;;;;30.00;20.17;;;;;;;;;;4973370;28;20469;-72
2021/04/02 05:58:32;;;;;;;23.88;15.77;;;;;;;;;;4989773;28;20026;-74
2021/04/02 06:00:59;;;;;;;27.52;17.45;;;;;;;;;;4986221;28;20033;-77
2021/04/02 06:03:25;;;;;;;50.22;32.67;;;;;;;;;;4988198;28;20038;-71
2021/04/02 06:05:51;;;;;;;31.48;20.40;;;;;;;;;;4993953;28;20442;-72
2021/04/02 06:08:18;;;;;;;54.25;32.13;;;;;;;;;;4993726;28;20470;-73
2021/04/02 06:10:45;;;;;;;90.50;55.58;;;410.00;2073.60;;;;;;4989547;28;20061;-71
2021/04/02 06:13:10;;;;;;;71.28;46.42;;;409.80;2150.40;;;;;;4984397;28;20023;-72
2021/04/02 06:15:37;;;;;;;69.82;44.85;;;410.00;2176.00;;;;;;4993270;28;20133;-75
2021/04/02 06:18:07;;;;;;;75.38;50.85;;;410.00;2227.20;;;;;;4993556;28;20034;-70
2021/04/02 06:20:36;;;;;;;105.53;68.05;;;410.10;2227.20;;;;;;4993413;28;20022;-73
2021/04/02 06:23:07;;;;;;;85.05;59.92;;;410.20;2278.40;;;;;;4993254;28;20066;-76
2021/04/02 06:25:33;;;;;;;;;;;410.50;2150.40;;;;;;4993927;28;20030;-75
2021/04/02 06:27:59;;;;;;;33.92;25.30;;;410.30;2176.00;;;;;;4993697;28;19906;-75
2021/04/02 06:30:29;;;;;;;45.53;31.38;;;;;;;;;;4993251;28;20026;-75
2021/04/02 06:32:55;;;;;;;39.88;27.17;;;435.40;2124.80;;;;;;4993259;28;20064;-75
2021/04/02 06:35:25;;;;;;;41.05;27.20;;;410.50;2073.60;;;;;;4993343;28;20030;-75
2021/04/02 06:37:57;;;;;;;40.35;29.15;;;;;;;;;;4993152;28;20496;-75
2021/04/02 06:40:24;;;;;;;47.08;32.60;;;;;;;;;;4983144;28;20027;-74
2021/04/02 06:42:51;;;;;;;44.80;29.35;;;;;;;;;;4989709;28;20034;-75
2021/04/02 06:45:17;;;;;;;50.58;31.95;;;;;;;;;;4991954;28;20022;-74
2021/04/02 06:47:44;;;;;;;58.53;38.25;;;;;;;;;;4993147;28;20517;-75
2021/04/02 06:50:14;;;;;;;59.05;40.05;;;;;;;;;;4992920;28;20101;-75
2021/04/02 06:52:40;;;;;;;59.88;40.45;;;;;;;;;;4992933;28;20022;-75
2021/04/02 06:55:08;;;;;;;62.72;44.13;;;435.70;2124.80;;;;;;4992981;28;20023;-72
2021/04/02 06:57:34;;;;;;;67.82;49.58;;;;;;;;;;4993038;28;20038;-72
2021/04/02 07:00:01;;;;;;;85.45;58.63;;;;;;;;;;4992849;28;20508;-72
2021/04/02 07:02:27;;;;;;;85.28;62.67;;;436.10;2150.40;;;;;;4993048;28;20124;-71
2021/04/02 07:04:56;;;;;;;76.63;56.47;;;435.90;2150.40;;;;;;4975721;28;20025;-73
2021/04/02 07:07:22;;;;;;;98.68;66.18;;;435.90;2150.40;;;;;;4992769;28;20101;-74
2021/04/02 07:09:50;;;;;;;162.25;95.60;;;;;;;;;;4993091;28;20429;-73
2021/04/02 07:12:18;;;;;;;74.10;50.97;;;;;;;;;;4992692;28;20042;-74
2021/04/02 07:14:45;;;;;;;65.10;43.97;;;;;;;;;;4992860;28;20026;-73
2021/04/02 07:17:11;;;;;;;68.70;47.05;;;;;;;;;;4992318;28;20047;-73
2021/04/02 07:19:38;;;;;;;67.80;46.05;;;;;;;;;;4992588;28;20023;-73
2021/04/02 07:22:05;;;;;;;56.90;40.65;;;;;;;;;;4992562;28;20088;-72
2021/04/02 07:24:31;;;;;;;51.30;37.97;;;;;;;;;;4992620;28;20026;-73
2021/04/02 07:26:57;;;;;;;50.55;35.40;;;;;;;;;;4982585;28;20134;-73
2021/04/02 07:29:24;;;;;;;53.95;38.35;;;;;;;;;;4992436;28;20533;-73
2021/04/02 07:31:50;;;;;;;55.10;41.88;;;;;;;;;;4992650;28;20033;-73
2021/04/02 07:34:17;;;;;;;58.92;43.63;;;;;;;;;;4992610;28;20418;-72
2021/04/02 07:36:46;;;;;;;65.85;46.97;;;;;;;;;;4992820;28;20081;-73
2021/04/02 07:39:12;;;;;;;67.63;48.72;;;;;;;;;;4992374;28;20101;-72
2021/04/02 07:41:39;;;;;;;67.72;51.38;;;;;;;;;;4992281;28;20470;-73
2021/04/02 07:44:06;;;;;;;73.00;54.42;;;;;;;;;;4992483;28;20385;-73
2021/04/02 07:46:33;;;;;;;80.88;56.58;;;;;;;;;;4992413;28;20031;-73
2021/04/02 07:49:02;;;;;;;72.72;50.63;;;;;;;;;;4992519;28;20030;-73
2021/04/02 07:51:48;;;;;;;71.47;52.72;;;;;;;;;;4992475;28;20019;-74
2021/04/02 07:54:15;;;;;;;69.63;50.92;;;;;;;;;;4992473;28;20096;-73
2021/04/02 07:56:43;;;;;;;66.93;48.33;;;;;;;;;;4977514;28;20512;-74
2021/04/02 07:59:09;;;;;;;62.17;44.15;;;;;;;;;;4996272;28;20026;-73
2021/04/02 08:01:35;;;;;;;63.40;47.88;;;;;;;;;;4996068;28;20030;-73
2021/04/02 08:04:02;;;;;;;69.15;49.63;;;;;;;;;;4995954;28;20026;-73
2021/04/02 08:06:38;;;;;;;64.95;47.13;;;;;;;;;;4995995;28;20019;-73
2021/04/02 08:09:07;;;;;;;49.00;37.72;;;;;;;;;;4995764;28;20396;-73
2021/04/02 08:11:57;;;;;;;52.53;35.42;;;;;;;;;;4995939;28;20461;-73
2021/04/02 08:14:33;;;;;;;55.17;39.85;;;;;;;;;;4995940;28;20030;-73
2021/04/02 08:16:59;;;;;;;49.13;34.53;;;;;;;;;;4995599;28;20062;-73
2021/04/02 08:19:26;;;;;;;47.45;37.75;;;;;;;;;;4995761;28;20105;-73
2021/04/02 08:21:52;;;;;;;50.45;33.90;;;;;;;;;;4995692;28;20030;-73
2021/04/02 08:24:20;;;;;;;47.78;34.72;;;;;;;;;;4995635;28;20493;-74
2021/04/02 08:26:47;;;;;;;47.55;35.38;;;;;;;;;;4985713;28;20023;-73
2021/04/02 08:29:14;;;;;;;52.40;35.08;;;;;;;;;;4992008;28;20026;-73
2021/04/02 08:31:42;;;;;;;50.38;37.08;;;;;;;;;;4995854;28;20381;-74
2021/04/02 08:34:08;;;;;;;61.75;45.17;;;;;;;;;;4995534;28;20026;-73
2021/04/02 08:36:35;;;;;;;61.60;42.80;;;;;;;;;;4988893;28;20389;-73
2021/04/02 08:39:01;;;;;;;45.88;35.53;;;;;;;;;;4976107;28;20027;-74
2021/04/02 08:41:30;;;;;;;41.05;29.83;;;;;;;;;;4994443;28;20029;-73
2021/04/02 08:43:56;;;;;;;34.38;26.95;;;;;;;;;;4995594;28;20042;-73
2021/04/02 08:46:36;;;;;;;35.78;27.85;;;;;;;;;;4995478;28;20030;-73
2021/04/02 08:49:03;;;;;;;35.47;27.50;;;;;;;;;;4995408;28;20026;-73
2021/04/02 08:51:29;;;;;;;51.33;34.03;;;;;;;;;;4995436;28;20096;-74
2021/04/02 08:53:55;;;;;;;76.13;55.55;;;;;;;;;;4995019;28;20026;-74
2021/04/02 08:56:21;;;;;;;104.57;74.32;;;;;;;;;;4995430;28;20138;-76
2021/04/02 08:58:48;;;;;;;96.85;67.70;;;;;;;;;;4995266;28;20084;-76
2021/04/02 09:01:14;;;;;;;77.10;57.95;;;;;;;;;;4995304;28;20022;-76
2021/04/02 09:03:41;;;;;;;56.88;42.17;;;;;;;;;;4981227;28;20041;-74
2021/04/02 09:06:08;;;;;;;56.92;41.55;;;;;;;;;;4995084;28;20018;-72
2021/04/02 09:08:35;;;;;;;34.30;25.77;;;;;;;;;;4993837;28;20186;-75
2021/04/02 09:11:02;;;;;;;41.30;32.33;;;;;;;;;;4994856;28;20014;-75
2021/04/02 09:13:28;;;;;;;24.85;18.27;;;;;;;;;;4994931;28;20034;-75
2021/04/02 09:15:55;;;;;;;22.65;17.02;;;;;;;;;;4980747;28;20104;-73
2021/04/02 09:18:28;;;;;;;33.72;24.60;;;563.60;1587.20;;;;;;4994698;28;20030;-73
2021/04/02 09:20:55;;;;;;;21.20;15.40;;;563.50;1587.20;;;;;;4994657;28;20511;-73
2021/04/02 09:23:22;;;;;;;27.73;17.02;;;563.50;1484.80;;;;;;4994478;28;20027;-72
2021/04/02 09:25:50;;;;;;;20.70;16.15;;;563.40;1408.00;;;;;;4994619;28;20061;-72
2021/04/02 09:28:21;;;;;;;24.17;14.80;;;563.40;1433.60;;;;;;4986374;28;20051;-72
2021/04/02 09:30:47;;;;;;;14.88;10.57;;;563.30;1408.00;;;;;;4989983;28;20089;-72
2021/04/02 09:33:18;;;;;;;20.15;12.10;;;563.30;1408.00;;;;;;4994349;28;20469;-72
2021/04/02 09:35:44;;;;;;;18.40;13.05;;;563.40;1408.00;;;;;;4980953;28;20027;-72
2021/04/02 09:38:11;;;;;;;20.08;13.00;;;563.50;1382.40;;;;;;4980925;28;20022;-73
2021/04/02 09:40:36;;;;;;;20.10;13.30;;;563.40;1356.80;;;;;;4982447;28;20030;-73
2021/04/02 09:43:04;;;;;;;17.63;10.70;;;563.40;1382.40;;;;;;4992336;28;20045;-74
2021/04/02 09:45:30;;;;;;;26.00;11.98;;;538.50;1331.20;;;;;;4994148;28;20088;-72
2021/04/02 09:47:55;;;;;;;34.65;17.58;;;563.20;1331.20;;;;;;4994760;28;20026;-75
2021/04/02 09:50:22;;;;;;;33.55;17.80;;;538.50;1356.80;;;;;;4994161;28;20045;-74
2021/04/02 09:52:48;;;;;;;47.42;19.42;;;538.50;1331.20;;;;;;4994130;28;20048;-74
2021/04/02 09:55:14;;;;;;;38.80;21.75;;;538.40;1356.80;;;;;;4992773;28;20499;-75
2021/04/02 09:57:40;;;;;;;35.47;18.73;;;538.30;1382.40;;;;;;4992631;28;20030;-74
2021/04/02 10:00:08;;;;;;;38.25;19.02;;;538.30;1382.40;;;;;;4993847;28;20080;-74
2021/04/02 10:02:34;;;;;;;38.60;19.48;;;538.30;1382.40;;;;;;4993827;28;20117;-74
2021/04/02 10:05:01;;;;;;;47.53;19.92;;;538.40;1382.40;;;;;;4976398;28;20110;-74
2021/04/02 10:07:27;;;;;;;55.03;17.25;;;538.40;1356.80;;;;;;4993848;28;20030;-74
2021/04/02 10:09:52;;;;;;;37.65;15.38;;;538.40;1356.80;;;;;;4993817;28;20041;-75
2021/04/02 10:12:18;;;;;;;42.83;16.50;;;538.40;1356.80;;;;;;4993690;28;20408;-75
2021/04/02 10:14:44;;;;;;;53.22;17.15;;;538.30;1356.80;;;;;;4993836;28;20034;-75
2021/04/02 10:17:11;;;;;;;23.30;13.98;;;538.30;1382.40;;;;;;4993381;28;20451;-75
2021/04/02 10:19:38;;;;;;;26.95;14.43;;;538.20;1356.80;;;;;;4993505;28;20080;-75
2021/04/02 10:22:04;;;;;;;37.65;14.73;;;538.20;1331.20;;;;;;4993610;28;20026;-75
2021/04/02 10:24:30;;;;;;;20.88;11.18;;;538.40;1305.60;;;;;;4979678;28;20026;-77
2021/04/02 10:26:58;;;;;;;32.72;13.57;;;538.50;1254.40;;;;;;4982104;28;20049;-75
2021/04/02 10:29:25;;;;;;;57.47;16.00;;;563.20;1280.00;;;;;;4991390;28;20030;-75
2021/04/02 10:31:51;;;;;;;23.45;12.82;;;563.80;1280.00;;;;;;4993404;28;20046;-74
2021/04/02 10:34:16;;;;;;;50.00;17.48;;;563.90;1228.80;;;;;;4979540;28;20034;-74
2021/04/02 10:36:42;;;;;;;41.13;16.77;;;564.00;1280.00;;;;;;4993176;28;20085;-74
2021/04/02 10:39:09;;;;;;;34.30;14.15;;;588.80;1254.40;;;;;;4985913;28;20463;-72
2021/04/02 10:41:35;;;;;;;30.75;12.38;;;;;;;;;;4975506;28;20034;-74
2021/04/02 10:44:01;;;;;;;57.00;14.88;;;;;;;;;;4993162;28;20170;-74
2021/04/02 10:46:27;;;;;;;40.03;12.20;;;;;;;;;;4992759;28;20031;-73
2021/04/02 10:48:53;;;;;;;27.73;10.98;;;;;;;;;;4973652;28;20109;-73
2021/04/02 10:51:20;;;;;;;34.28;16.00;;;;;;;;;;4985565;28;20031;-72
2021/04/02 10:53:47;;;;;;;34.85;15.52;;;;;;;;;;4992760;28;20018;-72
2021/04/02 10:56:14;;;;;;;35.85;15.30;;;;;;;;;;4993077;28;20650;-70
2021/04/02 10:58:39;;;;;;;76.65;22.63;;;589.50;1126.40;;;;;;4992873;28;20056;-70
2021/04/02 11:01:05;;;;;;;41.65;15.13;;;589.50;1152.00;;;;;;4984387;28;20048;-71
2021/04/02 11:03:31;;;;;;;27.52;11.63;;;;;;;;;;4987716;28;20096;-74
2021/04/02 11:05:57;;;;;;;41.58;13.07;;;615.00;1049.60;;;;;;4992950;28;20469;-72
2021/04/02 11:08:24;;;;;;;38.25;12.10;;;;;;;;;;4974721;28;20034;-73
2021/04/02 11:10:50;;;;;;;32.22;14.20;;;;;;;;;;4992780;28;20069;-73
2021/04/02 11:13:16;;;;;;;32.58;13.73;;;;;;;;;;4992869;28;20022;-74
2021/04/02 11:15:42;;;;;;;27.02;11.85;;;;;;;;;;4992415;28;20501;-73
2021/04/02 11:18:08;;;;;;;28.92;10.98;;;;;;;;;;4975350;28;20030;-74
2021/04/02 11:20:34;;;;;;;22.77;10.68;;;;;;;;;;4992509;28;20033;-73
2021/04/02 11:23:00;;;;;;;18.90;10.07;;;;;;;;;;4992623;28;20027;-77
2021/04/02 11:25:26;;;;;;;23.08;8.68;;;;;;;;;;4992802;28;20018;-78
2021/04/02 11:27:53;;;;;;;43.47;9.05;;;;;;;;;;4992777;28;20470;-77
2021/04/02 11:30:20;;;;;;;61.75;14.60;;;;;;;;;;4993388;28;20066;-78
2021/04/02 11:32:46;;;;;;;61.40;14.77;;;;;;;;;;4996556;28;20049;-77
2021/04/02 11:35:13;;;;;;;39.92;9.98;;;;;;;;;;4996455;28;20030;-77
2021/04/02 11:37:39;;;;;;;34.33;12.25;;;;;;;;;;4978796;28;20030;-77
2021/04/02 11:40:07;;;;;;;35.88;12.25;;;;;;;;;;4996468;28;20105;-77
2021/04/02 11:42:33;;;;;;;38.60;16.08;;;;;;;;;;4996542;28;20045;-77
2021/04/02 11:44:59;;;;;;;47.75;15.13;;;;;;;;;;4996361;28;20027;-77
2021/04/02 11:47:26;;;;;;;39.33;14.68;;;;;;;;;;4996559;28;20459;-77
2021/04/02 11:49:52;;;;;;;46.42;19.02;;;;;;;;;;4996222;28;20369;-78
2021/04/02 11:52:18;;;;;;;61.30;18.58;;;;;;;;;;4996385;28;20385;-73
2021/04/02 11:54:43;;;;;;;38.90;13.82;;;589.70;1049.60;;;;;;4996148;28;20358;-73
2021/04/02 11:57:10;;;;;;;32.30;12.88;;;;;;;;;;4991660;28;20157;-72
2021/04/02 11:59:35;;;;;;;38.10;12.63;;;589.70;1024.00;;;;;;4987012;28;20057;-72
2021/04/02 12:02:01;;;;;;;36.58;13.70;;;589.70;1049.60;;;;;;4995975;28;20134;-71
2021/04/02 12:04:27;;;;;;;25.85;12.13;;;;;;;;;;4996049;28;20022;-72
2021/04/02 12:06:53;;;;;;;33.85;11.88;;;;;;;;;;4996001;28;20022;-72
2021/04/02 12:09:19;;;;;;;23.67;10.07;;;;;;;;;;4995785;28;20101;-72
2021/04/02 12:11:46;;;;;;;23.90;9.90;;;;;;;;;;4995686;28;20027;-72
2021/04/02 12:14:11;;;;;;;20.95;10.10;;;691.30;768.00;;;;;;4995625;28;20030;-72
2021/04/02 12:16:38;;;;;;;16.40;8.75;;;;;;;;;;4995620;28;20046;-73
2021/04/02 12:19:04;;;;;;;25.02;10.13;;;665.90;819.20;;;;;;4978172;28;20034;-73
2021/04/02 12:21:31;;;;;;;23.23;7.50;;;665.60;844.80;;;;;;4987059;28;20030;-73
2021/04/02 12:23:58;;;;;;;20.77;7.32;;;640.60;793.60;;;;;;4990745;28;20547;-73
2021/04/02 12:26:24;;;;;;;32.22;14.60;;;640.40;819.20;;;;;;4995569;28;20038;-72
2021/04/02 12:28:50;;;;;;;22.80;10.18;;;640.00;819.20;;;;;;4995711;28;20029;-71
2021/04/02 12:31:18;;;;;;;22.88;10.75;;;614.80;896.00;;;;;;4995428;28;20022;-72
2021/04/02 12:33:47;;;;;;;19.30;12.70;;;;;;;;;;4984065;28;20038;-72
2021/04/02 12:36:12;;;;;;;29.02;11.90;;;614.40;947.20;;;;;;4993411;28;20097;-72
2021/04/02 12:38:38;;;;;;;24.45;10.30;;;614.40;972.80;;;;;;4995369;28;20058;-72
2021/04/02 12:41:05;;;;;;;19.52;8.63;;;;;;;;;;4995125;28;20030;-72
2021/04/02 12:43:31;;;;;;;28.85;8.90;;;614.40;972.80;;;;;;4995335;28;20037;-72
2021/04/02 12:45:58;;;;;;;32.72;10.77;;;589.70;947.20;;;;;;4995345;28;20022;-74
2021/04/02 12:48:26;;;;;;;23.05;8.65;;;589.70;947.20;;;;;;4995607;28;20128;-74
2021/04/02 12:50:53;;;;;;;22.92;8.30;;;589.70;947.20;;;;;;4995112;28;20034;-74
2021/04/02 12:53:19;;;;;;;20.77;7.63;;;614.50;921.60;;;;;;4995243;28;20026;-73
2021/04/02 12:55:45;;;;;;;38.13;27.48;;;589.70;947.20;;;;;;4995079;28;20026;-73
2021/04/02 12:58:11;;;;;;;23.65;18.80;;;589.70;947.20;;;;;;4994966;28;20022;-73
2021/04/02 13:00:36;;;;;;;24.25;10.07;;;589.70;947.20;;;;;;4977704;28;20089;-73
2021/04/02 13:03:02;;;;;;;29.58;12.80;;;589.70;947.20;;;;;;4994816;28;20042;-73
2021/04/02 13:05:28;;;;;;;27.25;15.30;;;589.60;947.20;;;;;;4995172;28;20022;-72
2021/04/02 13:07:55;;;;;;;22.75;11.20;;;;;;;;;;4994988;28;20493;-73
2021/04/02 13:10:21;;;;;;;37.67;14.10;;;589.70;921.60;;;;;;4993711;28;20362;-73
2021/04/02 13:12:50;;;;;;;32.60;13.63;;;589.40;921.60;;;;;;4982306;28;20109;-73
2021/04/02 13:15:17;;;;;;;29.75;12.32;;;589.40;947.20;;;;;;4994866;28;20014;-73
2021/04/02 13:17:45;;;;;;;19.45;11.30;;;589.30;947.20;;;;;;4989184;28;20035;-74
2021/04/02 13:20:14;;;;;;;33.05;11.43;;;589.20;947.20;;;;;;4986931;28;20469;-73